createdAt,value
2022-08-17T00:00:05.830Z,19.53
2022-08-17T00:03:00.816Z,19.56
2022-08-17T00:05:32.586Z,19.59
2022-08-17T00:07:59.661Z,19.57
2022-08-17T00:10:27.263Z,19.58
2022-08-17T00:12:54.446Z,19.53
2022-08-17T00:15:23.236Z,19.50
2022-08-17T00:17:51.672Z,19.41
2022-08-17T00:20:19.178Z,19.40
2022-08-17T00:22:50.535Z,19.32
2022-08-17T00:25:20.211Z,19.33
2022-08-17T00:27:47.251Z,19.27
2022-08-17T00:30:14.655Z,19.28
2022-08-17T00:33:14.541Z,19.27
2022-08-17T00:35:34.482Z,19.24
2022-08-17T00:38:01.621Z,19.22
2022-08-17T00:40:42.508Z,19.19
2022-08-17T00:43:36.616Z,19.08
2022-08-17T00:46:17.374Z,18.97
2022-08-17T00:48:45.341Z,18.93
2022-08-17T00:51:34.061Z,18.89
2022-08-17T00:54:15.463Z,18.85
2022-08-17T00:56:46.513Z,18.85
2022-08-17T00:59:17.905Z,18.77
2022-08-17T01:01:45.543Z,18.78
2022-08-17T01:04:14.219Z,18.69
2022-08-17T01:06:43.090Z,18.70
2022-08-17T01:09:09.965Z,18.67
2022-08-17T01:11:39.675Z,18.59
2022-08-17T01:14:09.107Z,18.56
2022-08-17T01:16:37.569Z,18.55
2022-08-17T01:19:16.325Z,18.50
2022-08-17T01:22:01.337Z,18.46
2022-08-17T01:24:28.726Z,18.41
2022-08-17T01:26:56.686Z,18.34
2022-08-17T01:29:25.405Z,18.37
2022-08-17T01:31:58.513Z,18.30
2022-08-17T01:34:38.048Z,18.23
2022-08-17T01:37:11.738Z,18.17
2022-08-17T01:39:42.255Z,18.10
2022-08-17T01:42:23.640Z,18.07
2022-08-17T01:44:56.917Z,18.00
2022-08-17T01:47:24.577Z,17.84
2022-08-17T01:49:51.785Z,17.89
2022-08-17T01:52:19.508Z,17.88
2022-08-17T01:54:49.167Z,17.84
2022-08-17T01:57:16.102Z,17.79
2022-08-17T01:59:43.064Z,17.71
2022-08-17T02:02:10.450Z,17.70
2022-08-17T02:04:37.531Z,17.68
2022-08-17T02:07:04.578Z,17.64
2022-08-17T02:09:31.579Z,17.70
2022-08-17T02:12:37.195Z,17.68
2022-08-17T02:14:51.398Z,17.58
2022-08-17T02:17:18.303Z,17.55
2022-08-17T02:19:45.254Z,17.47
2022-08-17T02:22:13.878Z,17.39
2022-08-17T02:24:58.707Z,17.36
2022-08-17T02:27:36.011Z,17.31
2022-08-17T02:31:01.667Z,17.24
2022-08-17T02:32:54.369Z,17.26
2022-08-17T02:35:22.758Z,17.21
2022-08-17T02:37:55.402Z,17.21
2022-08-17T02:40:35.871Z,17.19
2022-08-17T02:43:04.381Z,17.18
2022-08-17T02:45:31.270Z,17.14
2022-08-17T02:47:58.209Z,17.14
2022-08-17T02:50:26.182Z,17.12
2022-08-17T02:53:01.627Z,17.12
2022-08-17T02:55:38.264Z,17.10
2022-08-17T02:58:05.742Z,17.06
2022-08-17T03:00:36.800Z,17.01
2022-08-17T03:03:06.123Z,17.01
2022-08-17T03:05:35.724Z,16.99
2022-08-17T03:08:03.430Z,16.97
2022-08-17T03:10:31.304Z,16.94
2022-08-17T03:12:58.435Z,16.90
2022-08-17T03:15:28.892Z,16.83
2022-08-17T03:17:56.920Z,16.81
2022-08-17T03:20:25.867Z,16.79
2022-08-17T03:22:56.149Z,16.78
2022-08-17T03:25:37.019Z,16.70
2022-08-17T03:28:06.502Z,16.68
2022-08-17T03:30:34.315Z,16.64
2022-08-17T03:33:03.857Z,16.65
2022-08-17T03:35:33.056Z,16.64
2022-08-17T03:38:01.355Z,16.63
2022-08-17T03:40:55.354Z,16.64
2022-08-17T03:43:16.660Z,16.66
2022-08-17T03:46:02.493Z,16.65
2022-08-17T03:48:48.046Z,16.67
2022-08-17T03:51:38.752Z,16.69
2022-08-17T03:54:25.251Z,16.71
2022-08-17T03:57:07.459Z,16.69
2022-08-17T03:59:36.001Z,16.66
2022-08-17T04:02:17.585Z,16.62
2022-08-17T04:04:44.701Z,16.66
2022-08-17T04:07:11.750Z,16.66
2022-08-17T04:09:38.771Z,16.68
2022-08-17T04:12:06.122Z,16.70
2022-08-17T04:14:47.783Z,16.73
2022-08-17T04:17:35.384Z,16.73
2022-08-17T04:20:16.256Z,16.67
2022-08-17T04:23:11.672Z,16.85
2022-08-17T04:25:42.248Z,16.90
2022-08-17T04:28:15.851Z,16.83
2022-08-17T04:30:45.378Z,16.97
2022-08-17T04:33:16.267Z,17.01
2022-08-17T04:35:50.240Z,17.00
2022-08-17T04:38:23.388Z,16.92
2022-08-17T04:41:09.927Z,17.06
2022-08-17T04:43:38.433Z,17.11
2022-08-17T04:46:08.803Z,17.21
2022-08-17T04:48:39.776Z,17.30
2022-08-17T04:51:10.370Z,17.36
2022-08-17T04:53:39.889Z,17.44
2022-08-17T04:56:07.283Z,17.53
2022-08-17T04:58:34.319Z,17.62
2022-08-17T05:01:01.838Z,17.69
2022-08-17T05:03:29.301Z,17.77
2022-08-17T05:05:56.205Z,17.85
2022-08-17T05:08:23.152Z,17.93
2022-08-17T05:10:50.510Z,17.98
2022-08-17T05:13:22.116Z,18.08
2022-08-17T05:15:52.987Z,18.17
2022-08-17T05:18:19.917Z,18.25
2022-08-17T05:20:46.889Z,18.33
2022-08-17T05:23:16.779Z,18.35
2022-08-17T05:25:47.650Z,18.39
2022-08-17T05:28:16.903Z,18.52
2022-08-17T05:30:49.348Z,18.59
2022-08-17T05:33:23.055Z,18.74
2022-08-17T05:35:52.908Z,18.83
2022-08-17T05:38:22.568Z,18.91
2022-08-17T05:40:50.396Z,18.99
2022-08-17T05:43:23.518Z,19.11
2022-08-17T05:45:55.521Z,19.26
2022-08-17T05:48:39.406Z,19.39
2022-08-17T05:51:32.154Z,19.55
2022-08-17T05:54:20.762Z,19.66
2022-08-17T05:57:11.937Z,19.77
2022-08-17T06:00:14.327Z,19.89
2022-08-17T06:02:47.085Z,20.04
2022-08-17T06:05:19.958Z,20.10
2022-08-17T06:08:14.616Z,20.21
2022-08-17T06:10:53.989Z,20.24
2022-08-17T06:13:52.073Z,20.34
2022-08-17T06:16:32.945Z,20.49
2022-08-17T06:19:05.889Z,20.60
2022-08-17T06:21:39.734Z,20.74
2022-08-17T06:24:17.158Z,20.88
2022-08-17T06:26:45.951Z,20.88
2022-08-17T06:29:24.839Z,20.94
2022-08-17T06:31:52.276Z,21.04
2022-08-17T06:34:21.113Z,21.22
2022-08-17T06:37:03.743Z,21.31
2022-08-17T06:39:58.490Z,21.45
2022-08-17T06:43:05.460Z,21.56
2022-08-17T06:45:39.516Z,21.68
2022-08-17T06:48:24.965Z,21.75
2022-08-17T06:51:14.957Z,21.81
2022-08-17T06:53:52.047Z,21.89
2022-08-17T06:56:52.777Z,21.95
2022-08-17T06:59:35.677Z,22.11
2022-08-17T07:02:29.219Z,22.27
2022-08-17T07:05:14.330Z,22.36
2022-08-17T07:08:02.058Z,22.53
2022-08-17T07:10:36.199Z,22.66
2022-08-17T07:13:38.307Z,22.83
2022-08-17T07:16:16.017Z,22.98
2022-08-17T07:18:43.931Z,23.16
2022-08-17T07:21:26.687Z,23.37
2022-08-17T07:24:30.119Z,23.54
2022-08-17T07:27:17.118Z,23.72
2022-08-17T07:29:50.617Z,23.83
2022-08-17T07:32:22.997Z,23.98
2022-08-17T07:35:11.208Z,24.06
2022-08-17T07:37:40.259Z,24.22
2022-08-17T07:40:20.720Z,24.35
2022-08-17T07:43:11.469Z,24.45
2022-08-17T07:46:30.233Z,24.47
2022-08-17T07:49:16.711Z,24.56
2022-08-17T07:51:43.960Z,24.75
2022-08-17T07:54:22.508Z,24.88
2022-08-17T07:57:25.404Z,25.01
2022-08-17T08:00:02.158Z,25.17
2022-08-17T08:02:42.406Z,25.21
2022-08-17T08:05:49.456Z,25.27
2022-08-17T08:08:27.307Z,25.34
2022-08-17T08:10:59.888Z,25.38
2022-08-17T08:13:30.461Z,25.45
2022-08-17T08:16:14.087Z,25.52
2022-08-17T08:18:55.066Z,25.57
2022-08-17T08:21:51.536Z,25.69
2022-08-17T08:25:03.315Z,25.78
2022-08-17T08:28:11.498Z,25.91
2022-08-17T08:30:43.718Z,26.03
2022-08-17T08:33:32.171Z,26.07
2022-08-17T08:36:11.174Z,26.25
2022-08-17T08:39:09.353Z,26.37
2022-08-17T08:41:49.401Z,26.56
2022-08-17T08:45:01.051Z,26.69
2022-08-17T08:47:23.611Z,26.77
2022-08-17T08:50:37.210Z,26.70
2022-08-17T08:53:30.967Z,26.74
2022-08-17T08:56:04.812Z,26.84
2022-08-17T08:58:41.773Z,27.04
2022-08-17T09:01:31.375Z,27.31
2022-08-17T09:04:24.197Z,27.48
2022-08-17T09:07:16.402Z,27.68
2022-08-17T09:09:59.844Z,27.75
2022-08-17T09:12:53.563Z,27.85
2022-08-17T09:15:25.855Z,27.82
2022-08-17T09:18:59.178Z,27.85
2022-08-17T09:20:57.509Z,28.02
2022-08-17T09:23:44.889Z,28.07
2022-08-17T09:26:22.234Z,28.12
2022-08-17T09:28:56.018Z,28.22
2022-08-17T09:31:46.494Z,28.22
2022-08-17T09:34:28.176Z,28.21
2022-08-17T09:37:18.845Z,28.25
2022-08-17T09:40:16.647Z,28.39
2022-08-17T09:43:09.830Z,28.61
2022-08-17T09:45:46.522Z,28.69
2022-08-17T09:48:50.568Z,28.64
2022-08-17T09:51:24.738Z,28.75
2022-08-17T09:53:52.068Z,28.87
2022-08-17T09:56:18.980Z,28.97
2022-08-17T09:58:56.607Z,29.03
2022-08-17T10:01:57.240Z,28.96
2022-08-17T10:04:48.317Z,28.72
2022-08-17T10:07:41.561Z,28.76
2022-08-17T10:10:14.802Z,28.76
2022-08-17T10:13:05.472Z,28.85
2022-08-17T10:16:29.388Z,29.08
2022-08-17T10:19:09.597Z,29.23
2022-08-17T10:22:00.788Z,29.36
2022-08-17T10:25:01.877Z,29.33
2022-08-17T10:27:52.971Z,29.41
2022-08-17T10:30:23.402Z,29.48
2022-08-17T10:32:55.496Z,29.42
2022-08-17T10:35:41.125Z,29.40
2022-08-17T10:38:26.222Z,29.37
2022-08-17T10:40:56.338Z,29.50
2022-08-17T10:44:40.231Z,29.75
2022-08-17T10:47:01.657Z,29.85
2022-08-17T10:49:34.726Z,29.78
2022-08-17T10:52:25.007Z,29.82
2022-08-17T10:54:58.212Z,29.92
2022-08-17T10:57:35.016Z,30.07
2022-08-17T11:00:17.453Z,30.21
2022-08-17T11:02:50.338Z,30.17
2022-08-17T11:05:52.465Z,30.09
2022-08-17T11:08:48.710Z,30.05
2022-08-17T11:11:15.566Z,29.94
2022-08-17T11:13:43.344Z,29.85
2022-08-17T11:16:28.586Z,30.02
2022-08-17T11:19:10.734Z,30.14
2022-08-17T11:22:04.853Z,30.22
2022-08-17T11:24:40.067Z,30.31
2022-08-17T11:27:33.307Z,30.36
2022-08-17T11:30:02.095Z,30.44
2022-08-17T11:32:34.810Z,30.71
2022-08-17T11:35:07.855Z,30.76
2022-08-17T11:38:15.926Z,30.87
2022-08-17T11:40:52.201Z,30.74
2022-08-17T11:43:43.057Z,30.94
2022-08-17T11:47:00.985Z,30.64
2022-08-17T11:50:16.916Z,29.89
2022-08-17T11:52:49.811Z,29.54
2022-08-17T11:55:35.857Z,29.53
2022-08-17T11:58:06.690Z,29.36
2022-08-17T12:00:45.523Z,29.22
2022-08-17T12:03:33.132Z,29.29
2022-08-17T12:06:17.647Z,29.39
2022-08-17T12:09:00.661Z,29.28
2022-08-17T12:12:12.894Z,29.46
2022-08-17T12:17:40.892Z,29.43
2022-08-17T12:20:41.093Z,29.03
2022-08-17T12:23:24.759Z,28.76
2022-08-17T12:26:04.092Z,28.67
2022-08-17T12:28:35.337Z,28.92
2022-08-17T12:31:12.013Z,29.06
2022-08-17T12:33:43.970Z,29.07
2022-08-17T12:36:15.376Z,29.28
2022-08-17T12:39:12.964Z,29.40
2022-08-17T12:41:47.311Z,29.55
2022-08-17T12:44:24.653Z,29.80
2022-08-17T12:47:07.884Z,30.16
2022-08-17T12:49:42.428Z,30.26
2022-08-17T12:52:12.608Z,30.12
2022-08-17T12:54:51.541Z,29.98
2022-08-17T12:57:25.548Z,30.05
2022-08-17T13:00:00.048Z,30.01
2022-08-17T13:02:45.265Z,30.19
2022-08-17T13:05:29.944Z,30.16
2022-08-17T13:07:59.327Z,30.28
2022-08-17T13:10:35.603Z,30.06
2022-08-17T13:13:21.658Z,30.12
2022-08-17T13:15:53.319Z,30.21
2022-08-17T13:18:46.019Z,30.42
2022-08-17T13:21:30.732Z,30.59
2022-08-17T13:24:00.667Z,30.59
2022-08-17T13:27:08.632Z,30.67
2022-08-17T13:29:51.491Z,30.46
2022-08-17T13:32:33.414Z,30.46
2022-08-17T13:35:12.198Z,30.54
2022-08-17T13:38:01.593Z,30.59
2022-08-17T13:40:35.837Z,30.59
2022-08-17T13:43:05.526Z,30.68
2022-08-17T13:45:39.156Z,30.67
2022-08-17T13:48:11.947Z,30.54
2022-08-17T13:50:54.820Z,30.55
2022-08-17T13:53:26.826Z,30.74
2022-08-17T13:55:59.547Z,30.74
2022-08-17T13:58:30.250Z,30.78
2022-08-17T14:00:57.424Z,30.74
2022-08-17T14:03:25.026Z,30.78
2022-08-17T14:05:53.051Z,30.72
2022-08-17T14:08:20.953Z,30.64
2022-08-17T14:10:58.823Z,30.81
2022-08-17T14:13:25.779Z,30.88
2022-08-17T14:15:54.797Z,30.82
2022-08-17T14:18:35.699Z,30.93
2022-08-17T14:21:11.975Z,30.91
2022-08-17T14:23:38.964Z,31.00
2022-08-17T14:26:06.204Z,31.04
2022-08-17T14:28:33.138Z,31.04
2022-08-17T14:31:03.624Z,31.13
2022-08-17T14:33:30.567Z,31.13
2022-08-17T14:35:57.825Z,31.11
2022-08-17T14:38:25.381Z,31.17
2022-08-17T14:40:52.652Z,31.13
2022-08-17T14:43:20.608Z,31.22
2022-08-17T14:45:47.681Z,31.44
2022-08-17T14:48:14.663Z,31.58
2022-08-17T14:50:43.385Z,31.66
2022-08-17T14:53:13.641Z,31.75
2022-08-17T14:55:40.864Z,31.50
2022-08-17T14:58:09.252Z,31.40
2022-08-17T15:00:37.447Z,31.30
2022-08-17T15:03:05.537Z,31.33
2022-08-17T15:05:36.814Z,31.10
2022-08-17T15:08:05.750Z,31.05
2022-08-17T15:10:33.092Z,31.22
2022-08-17T15:13:00.633Z,31.40
2022-08-17T15:15:28.857Z,31.53
2022-08-17T15:17:56.094Z,31.26
2022-08-17T15:20:28.188Z,31.34
2022-08-17T15:22:57.425Z,31.31
2022-08-17T15:25:32.777Z,31.49
2022-08-17T15:28:00.591Z,31.86
2022-08-17T15:30:28.048Z,32.15
2022-08-17T15:32:57.820Z,32.21
2022-08-17T15:35:29.169Z,32.38
2022-08-17T15:38:08.353Z,32.48
2022-08-17T15:40:41.462Z,32.51
2022-08-17T15:43:12.355Z,32.41
2022-08-17T15:45:40.304Z,32.46
2022-08-17T15:48:07.738Z,32.58
2022-08-17T15:50:35.606Z,32.49
2022-08-17T15:53:03.763Z,32.62
2022-08-17T15:55:31.357Z,32.53
2022-08-17T15:57:58.708Z,32.49
2022-08-17T16:00:28.418Z,32.48
2022-08-17T16:03:46.978Z,32.60
2022-08-17T16:05:43.727Z,32.64
2022-08-17T16:08:11.265Z,32.93
2022-08-17T16:10:38.491Z,32.97
2022-08-17T16:13:05.478Z,32.78
2022-08-17T16:15:44.281Z,32.85
2022-08-17T16:18:11.695Z,32.97
2022-08-17T16:20:38.720Z,32.91
2022-08-17T16:23:05.912Z,32.85
2022-08-17T16:25:52.000Z,32.66
2022-08-17T16:28:20.740Z,32.62
2022-08-17T16:30:47.732Z,32.53
2022-08-17T16:33:16.810Z,32.49
2022-08-17T16:35:44.141Z,32.31
2022-08-17T16:38:12.811Z,32.06
2022-08-17T16:40:40.664Z,31.82
2022-08-17T16:43:10.768Z,31.61
2022-08-17T16:45:40.882Z,31.62
2022-08-17T16:48:09.463Z,31.58
2022-08-17T16:50:36.997Z,31.29
2022-08-17T16:53:10.907Z,31.08
2022-08-17T16:55:38.628Z,30.97
2022-08-17T16:58:06.536Z,30.81
2022-08-17T17:00:34.363Z,30.66
2022-08-17T17:03:19.768Z,30.40
2022-08-17T17:05:58.046Z,30.17
2022-08-17T17:08:44.411Z,29.86
2022-08-17T17:11:37.177Z,29.41
2022-08-17T17:14:30.109Z,28.99
2022-08-17T17:17:28.193Z,28.53
2022-08-17T17:20:13.672Z,28.31
2022-08-17T17:23:05.429Z,28.07
2022-08-17T17:25:45.314Z,27.85
2022-08-17T17:28:30.322Z,27.70
2022-08-17T17:31:14.591Z,27.48
2022-08-17T17:33:51.080Z,27.35
2022-08-17T17:36:41.843Z,27.22
2022-08-17T17:39:29.519Z,26.98
2022-08-17T17:41:59.537Z,26.87
2022-08-17T17:44:32.347Z,26.71
2022-08-17T17:47:02.746Z,26.55
2022-08-17T17:49:45.427Z,26.43
2022-08-17T17:52:19.585Z,26.36
2022-08-17T17:55:13.304Z,26.23
2022-08-17T17:58:01.459Z,26.13
2022-08-17T18:00:48.219Z,26.04
2022-08-17T18:03:20.927Z,25.95
2022-08-17T18:06:12.649Z,25.91
2022-08-17T18:08:41.816Z,25.83
2022-08-17T18:11:25.159Z,25.75
2022-08-17T18:14:18.709Z,25.71
2022-08-17T18:16:47.621Z,25.65
2022-08-17T18:19:20.507Z,25.60
2022-08-17T18:22:02.928Z,25.49
2022-08-17T18:24:40.320Z,25.46
2022-08-17T18:27:23.513Z,25.38
2022-08-17T18:29:53.727Z,25.29
2022-08-17T18:32:32.060Z,25.19
2022-08-17T18:35:09.635Z,25.16
2022-08-17T18:37:50.382Z,25.12
2022-08-17T18:40:17.464Z,25.09
2022-08-17T18:43:13.068Z,25.04
2022-08-17T18:45:43.075Z,24.97
2022-08-17T18:48:21.382Z,24.89
2022-08-17T18:50:48.889Z,24.86
2022-08-17T18:53:39.679Z,24.84
2022-08-17T18:56:30.587Z,24.77
2022-08-17T18:59:28.386Z,24.70
2022-08-17T19:02:09.983Z,24.63
2022-08-17T19:05:02.040Z,24.54
2022-08-17T19:07:41.875Z,24.47
2022-08-17T19:10:46.424Z,24.44
2022-08-17T19:13:24.376Z,24.36
2022-08-17T19:16:15.707Z,24.35
2022-08-17T19:18:52.703Z,24.22
2022-08-17T19:21:36.747Z,24.17
2022-08-17T19:24:09.781Z,24.05
2022-08-17T19:26:51.081Z,23.91
2022-08-17T19:29:34.254Z,23.93
2022-08-17T19:32:02.169Z,23.85
2022-08-17T19:34:34.830Z,23.81
2022-08-17T19:37:07.053Z,23.71
2022-08-17T19:39:58.423Z,23.60
2022-08-17T19:42:31.431Z,23.52
2022-08-17T19:45:19.606Z,23.38
2022-08-17T19:48:01.677Z,23.34
2022-08-17T19:50:29.881Z,23.28
2022-08-17T19:53:04.104Z,23.14
2022-08-17T19:55:57.731Z,23.17
2022-08-17T19:58:52.064Z,23.08
2022-08-17T20:01:34.834Z,23.06
2022-08-17T20:04:31.840Z,23.03
2022-08-17T20:07:16.205Z,22.98
2022-08-17T20:09:54.256Z,22.94
2022-08-17T20:12:25.991Z,22.94
2022-08-17T20:14:57.550Z,22.92
2022-08-17T20:17:30.534Z,22.78
2022-08-17T20:20:27.372Z,22.83
2022-08-17T20:23:08.054Z,22.92
2022-08-17T20:25:48.046Z,22.97
2022-08-17T20:28:28.167Z,22.97
2022-08-17T20:30:56.010Z,22.94
2022-08-17T20:33:37.405Z,22.97
2022-08-17T20:36:10.100Z,22.96
2022-08-17T20:38:42.918Z,22.94
2022-08-17T20:41:20.993Z,22.90
2022-08-17T20:43:51.367Z,22.89
2022-08-17T20:46:36.690Z,22.90
2022-08-17T20:49:16.642Z,22.88
2022-08-17T20:52:10.073Z,22.84
2022-08-17T20:54:54.916Z,22.84
2022-08-17T20:57:37.098Z,22.85
2022-08-17T21:00:16.889Z,22.84
2022-08-17T21:02:49.703Z,22.81
2022-08-17T21:05:30.354Z,22.75
2022-08-17T21:08:01.350Z,22.68
2022-08-17T21:10:34.169Z,22.55
2022-08-17T21:13:16.263Z,22.55
2022-08-17T21:16:05.418Z,22.46
2022-08-17T21:18:55.058Z,22.42
2022-08-17T21:21:43.328Z,22.38
2022-08-17T21:24:26.115Z,22.36
2022-08-17T21:27:01.515Z,22.36
2022-08-17T21:29:34.095Z,22.35
2022-08-17T21:32:08.483Z,22.38
2022-08-17T21:34:45.026Z,22.36
2022-08-17T21:37:23.335Z,22.37
2022-08-17T21:40:10.390Z,22.36
2022-08-17T21:42:45.064Z,22.29
2022-08-17T21:45:22.268Z,22.29
2022-08-17T21:48:05.567Z,22.24
2022-08-17T21:50:32.741Z,22.17
2022-08-17T21:53:02.401Z,22.13
2022-08-17T21:55:32.710Z,22.08
2022-08-17T21:58:24.163Z,22.01
2022-08-17T22:01:12.094Z,21.90
2022-08-17T22:03:39.686Z,21.91
2022-08-17T22:06:25.834Z,21.88
2022-08-17T22:09:10.148Z,21.83
2022-08-17T22:11:52.896Z,21.75
2022-08-17T22:14:25.991Z,21.75
2022-08-17T22:17:34.544Z,21.68
2022-08-17T22:20:09.541Z,21.58
2022-08-17T22:23:18.121Z,21.49
2022-08-17T22:26:06.755Z,21.41
2022-08-17T22:28:51.861Z,21.34
2022-08-17T22:31:22.308Z,21.32
2022-08-17T22:34:07.734Z,21.29
2022-08-17T22:36:39.189Z,21.25
2022-08-17T22:39:08.857Z,21.22
2022-08-17T22:41:50.840Z,21.17
2022-08-17T22:47:02.826Z,21.12
2022-08-17T22:49:38.791Z,21.10
2022-08-17T22:52:29.132Z,21.04
2022-08-17T22:55:30.588Z,20.99
2022-08-17T22:58:16.348Z,20.94
2022-08-17T23:00:46.597Z,20.91
2022-08-17T23:03:20.625Z,20.86
2022-08-17T23:06:03.745Z,20.81
2022-08-17T23:08:31.212Z,20.71
2022-08-17T23:11:00.282Z,20.72
2022-08-17T23:13:28.015Z,20.71
2022-08-17T23:15:54.921Z,20.62
2022-08-17T23:18:23.832Z,20.62
2022-08-17T23:20:50.634Z,20.65
2022-08-17T23:23:23.422Z,20.61
2022-08-17T23:25:50.785Z,20.66
2022-08-17T23:28:18.987Z,20.70
2022-08-17T23:30:48.639Z,20.68
2022-08-17T23:33:30.147Z,20.60
2022-08-17T23:36:00.475Z,20.67
2022-08-17T23:38:28.435Z,20.68
2022-08-17T23:40:56.894Z,20.67
2022-08-17T23:43:28.204Z,20.62
2022-08-17T23:45:59.897Z,20.58
2022-08-17T23:48:34.949Z,20.49
2022-08-17T23:51:06.153Z,20.48
2022-08-17T23:53:36.440Z,20.39
2022-08-17T23:56:09.144Z,20.38
2022-08-17T23:58:42.529Z,20.31
